Time;durP1;ratioP1;P1;durP2;ratioP2;P2;SDS_P1;SDS_P2;PMS_P1;PMS_P2;Temp;Humidity;BMP_temperature;BMP_pressure;BME280_temperature;BME280_humidity;BME280_pressure;Samples;Min_cycle;Max_cycle;Signal;HPM_P1;HPM_P2
2021/11/26 00:01:10;;;;;;;7.77;3.67;;;6.80;91.90;;;;;;5064479;28;20203;-82
2021/11/26 00:03:51;;;;;;;6.60;3.50;;;6.80;92.60;;;;;;5076302;28;20204;-83
2021/11/26 00:06:19;;;;;;;8.77;3.60;;;6.80;93.00;;;;;;5060656;28;20212;-92
2021/11/26 00:08:48;;;;;;;6.77;3.10;;;6.80;93.40;;;;;;5064857;28;20177;-85
2021/11/26 00:11:15;;;;;;;8.57;3.40;;;6.90;93.30;;;;;;5074560;28;20235;-91
2021/11/26 00:13:53;;;;;;;7.17;3.10;;;6.80;94.00;;;;;;5062681;28;20185;-91
2021/11/26 00:16:33;;;;;;;8.13;3.67;;;6.80;94.20;;;;;;5067522;28;20176;-84
2021/11/26 00:19:04;;;;;;;6.33;3.00;;;6.80;94.70;;;;;;5073066;28;20141;-78
2021/11/26 00:21:35;;;;;;;6.37;3.00;;;6.70;95.30;;;;;;5079734;28;20165;-82
2021/11/26 00:24:14;;;;;;;8.60;3.30;;;6.80;95.80;;;;;;5079339;28;20153;-79
2021/11/26 00:26:47;;;;;;;8.93;3.30;;;6.70;96.20;;;;;;5079772;28;20177;-84
2021/11/26 00:29:20;;;;;;;9.57;3.30;;;6.70;96.50;;;;;;5080181;28;20591;-80
2021/11/26 00:32:06;;;;;;;8.37;3.37;;;6.70;96.90;;;;;;5079515;28;20153;-85
2021/11/26 00:34:54;;;;;;;10.10;2.50;;;6.60;96.90;;;;;;5078962;28;20251;-81
2021/11/26 00:37:23;;;;;;;6.13;3.03;;;6.70;96.90;;;;;;5079148;28;20215;-81
2021/11/26 00:40:05;;;;;;;6.17;2.63;;;6.70;96.80;;;;;;5067394;28;20172;-79
2021/11/26 00:42:39;;;;;;;4.67;2.50;;;6.80;96.80;;;;;;5059725;28;20168;-85
2021/11/26 00:45:18;;;;;;;5.93;2.80;;;6.80;96.10;;;;;;5057959;28;20177;-77
2021/11/26 00:47:47;;;;;;;8.40;2.57;;;6.90;95.50;;;;;;5055455;28;20170;-78
2021/11/26 00:50:19;;;;;;;6.47;2.50;;;6.90;95.80;;;;;;5071195;28;20157;-77
2021/11/26 00:53:05;;;;;;;4.97;2.30;;;6.90;95.40;;;;;;5078267;28;20203;-79
2021/11/26 00:56:04;;;;;;;5.53;2.23;;;6.90;95.70;;;;;;5073591;28;20204;-79
2021/11/26 00:59:15;;;;;;;5.27;2.37;;;7.00;94.80;;;;;;5068381;28;20249;-82
2021/11/26 01:01:46;;;;;;;5.23;2.00;;;7.10;94.30;;;;;;5066080;28;20179;-81
2021/11/26 01:04:20;;;;;;;6.03;2.07;;;7.10;93.70;;;;;;5066101;28;20181;-81
2021/11/26 01:06:51;;;;;;;5.93;2.27;;;7.10;94.00;;;;;;5064300;28;20665;-82
2021/11/26 01:09:54;;;;;;;7.50;2.33;;;7.00;93.70;;;;;;5064078;28;20192;-81
2021/11/26 01:12:20;;;;;;;5.13;2.33;;;7.00;94.40;;;;;;5063645;28;20168;-80
2021/11/26 01:14:58;;;;;;;3.97;2.10;;;7.00;94.50;;;;;;5060932;28;20197;-82
2021/11/26 01:18:15;;;;;;;5.50;2.10;;;7.00;94.80;;;;;;5058821;28;20176;-81
2021/11/26 01:20:47;;;;;;;6.00;2.30;;;6.90;94.80;;;;;;5062853;28;20158;-86
2021/11/26 01:23:14;;;;;;;4.83;2.57;;;7.00;95.60;;;;;;5063592;28;20239;-78
2021/11/26 01:26:06;;;;;;;5.77;2.40;;;6.80;96.30;;;;;;5054912;28;20165;-78
2021/11/26 01:29:05;;;;;;;5.33;2.63;;;6.80;97.80;;;;;;5057399;28;20595;-78
2021/11/26 01:31:35;;;;;;;5.83;2.67;;;6.90;97.10;;;;;;5056180;28;20668;-78
2021/11/26 01:37:23;;;;;;;9.30;3.37;;;6.80;97.80;;;;;;5068183;28;20203;-81
2021/11/26 01:39:52;;;;;;;9.83;3.60;;;6.70;99.00;;;;;;5069489;28;20168;-78
2021/11/26 01:42:19;;;;;;;8.40;3.30;;;6.80;99.20;;;;;;5053260;28;20183;-79
2021/11/26 01:44:59;;;;;;;6.83;3.43;;;6.80;99.00;;;;;;5070081;28;20157;-78
2021/11/26 01:47:26;;;;;;;8.47;3.40;;;6.80;98.90;;;;;;5072666;28;20160;-79
2021/11/26 01:50:10;;;;;;;7.17;3.50;;;6.80;99.40;;;;;;5075341;28;20160;-78
2021/11/26 01:52:49;;;;;;;8.57;3.80;;;6.80;99.60;;;;;;5076608;28;20335;-83
2021/11/26 01:55:22;;;;;;;7.07;3.97;;;6.80;99.80;;;;;;5074605;28;20204;-86
2021/11/26 01:58:14;;;;;;;9.10;3.60;;;6.70;99.80;;;;;;5058915;28;20149;-84
2021/11/26 02:00:46;;;;;;;5.70;3.17;;;6.60;99.90;;;;;;5073649;28;20181;-81
2021/11/26 02:03:14;;;;;;;6.50;3.63;;;6.60;99.90;;;;;;5075036;28;20152;-79
2021/11/26 02:05:40;;;;;;;8.43;3.50;;;6.40;99.90;;;;;;5072011;28;20216;-83
2021/11/26 02:08:20;;;;;;;9.97;3.57;;;6.60;99.90;;;;;;5069463;28;20188;-83
2021/11/26 02:10:52;;;;;;;8.73;3.80;;;6.50;99.90;;;;;;5069502;28;20164;-84
2021/11/26 02:13:20;;;;;;;7.50;4.00;;;6.40;99.90;;;;;;5069110;28;20157;-82
2021/11/26 02:15:46;;;;;;;7.83;3.80;;;6.40;99.90;;;;;;5058809;28;20197;-84
2021/11/26 02:18:14;;;;;;;8.00;3.90;;;6.60;99.90;;;;;;5049934;28;20252;-78
2021/11/26 02:20:44;;;;;;;6.13;4.07;;;6.60;99.90;;;;;;5066985;28;20180;-83
2021/11/26 02:23:16;;;;;;;9.87;3.97;;;6.40;99.90;;;;;;5067325;28;20180;-80
2021/11/26 02:25:43;;;;;;;10.57;3.67;;;6.40;99.90;;;;;;5068766;28;20165;-90
2021/11/26 02:28:17;;;;;;;8.80;4.00;;;6.40;99.90;;;;;;5068412;28;20169;-88
2021/11/26 02:30:43;;;;;;;9.30;4.33;;;6.50;99.90;;;;;;5065359;28;20191;-85
2021/11/26 02:33:38;;;;;;;8.30;3.97;;;6.40;99.90;;;;;;5062390;28;20196;-79
2021/11/26 02:36:21;;;;;;;12.93;5.10;;;6.40;99.90;;;;;;5061651;28;20660;-79
2021/11/26 02:38:52;;;;;;;13.00;5.23;;;6.50;99.90;;;;;;5067676;28;20184;-87
2021/11/26 02:41:18;;;;;;;9.80;5.60;;;6.50;99.90;;;;;;5070305;28;20176;-80
2021/11/26 02:43:47;;;;;;;9.93;5.07;;;6.60;99.90;;;;;;5069640;28;20165;-83
2021/11/26 02:46:19;;;;;;;10.50;4.63;;;6.50;99.90;;;;;;5063483;28;20204;-82
2021/11/26 02:48:46;;;;;;;16.80;5.37;;;6.40;99.90;;;;;;5066882;28;20177;-90
2021/11/26 02:51:31;;;;;;;8.97;4.83;;;6.30;99.90;;;;;;5067663;28;20173;-86
2021/11/26 02:54:00;;;;;;;10.27;5.17;;;6.40;99.90;;;;;;5065188;28;20295;-82
2021/11/26 02:56:28;;;;;;;8.37;5.17;;;6.40;99.90;;;;;;5071441;28;20169;-79
2021/11/26 02:59:00;;;;;;;9.40;5.43;;;6.30;99.90;;;;;;5058034;28;20173;-79
2021/11/26 03:01:27;;;;;;;14.30;5.73;;;6.20;99.90;;;;;;5064746;28;20580;-84
2021/11/26 03:03:56;;;;;;;11.47;5.33;;;6.30;99.90;;;;;;5046443;28;20632;-91
2021/11/26 03:06:22;;;;;;;13.10;5.40;;;6.10;99.90;;;;;;5060829;28;20184;-89
2021/11/26 03:08:54;;;;;;;12.03;5.27;;;6.10;99.90;;;;;;5062089;28;20177;-90
2021/11/26 03:11:23;;;;;;;11.83;5.97;;;6.10;99.90;;;;;;5054728;28;20187;-88
2021/11/26 03:13:49;;;;;;;9.60;5.33;;;6.20;99.90;;;;;;5061333;28;20204;-88
2021/11/26 03:16:20;;;;;;;8.50;5.13;;;6.30;99.90;;;;;;5053825;28;20178;-82
2021/11/26 03:18:47;;;;;;;14.83;6.37;;;6.20;99.90;;;;;;5042716;28;20269;-79
2021/11/26 03:21:19;;;;;;;14.27;5.60;;;6.30;99.90;;;;;;5061526;28;20198;-84
2021/11/26 03:23:49;;;;;;;10.27;5.47;;;6.10;99.90;;;;;;5061791;28;20192;-85
2021/11/26 03:26:15;;;;;;;12.00;5.73;;;6.00;99.90;;;;;;5060753;28;20235;-84
2021/11/26 03:28:43;;;;;;;11.60;6.03;;;6.00;99.90;;;;;;5058397;28;20175;-81
2021/11/26 03:31:09;;;;;;;11.73;5.77;;;5.90;99.90;;;;;;5060550;28;20165;-81
2021/11/26 03:33:34;;;;;;;9.77;5.60;;;6.00;99.90;;;;;;5061542;28;20185;-90
2021/11/26 03:36:00;;;;;;;15.50;6.63;;;6.00;99.90;;;;;;5060017;28;20173;-79
2021/11/26 03:38:35;;;;;;;13.33;6.07;;;6.00;99.90;;;;;;5057361;28;20181;-78
2021/11/26 03:41:02;;;;;;;13.40;6.23;;;6.20;99.90;;;;;;5046871;28;20200;-78
2021/11/26 03:43:28;;;;;;;12.20;6.20;;;6.10;99.90;;;;;;5072901;28;20204;-78
2021/11/26 03:45:55;;;;;;;14.70;6.83;;;6.20;99.90;;;;;;5060538;28;20642;-78
2021/11/26 03:48:25;;;;;;;13.77;6.20;;;6.20;99.90;;;;;;5068788;28;20179;-85
2021/11/26 03:50:52;;;;;;;15.53;7.00;;;6.20;99.90;;;;;;5052925;28;20192;-79
2021/11/26 03:53:27;;;;;;;16.07;7.07;;;6.50;99.90;;;;;;5066647;28;20165;-78
2021/11/26 03:55:55;;;;;;;13.40;6.90;;;6.40;99.90;;;;;;5063996;28;20173;-82
2021/11/26 03:59:06;;;;;;;15.17;7.30;;;6.30;99.90;;;;;;5066509;28;20160;-82
2021/11/26 04:01:34;;;;;;;16.30;6.77;;;6.10;99.90;;;;;;5075178;28;20191;-79
2021/11/26 04:04:03;;;;;;;14.63;6.80;;;6.20;99.90;;;;;;5071870;28;20168;-79
2021/11/26 04:06:51;;;;;;;13.80;6.33;;;6.20;99.90;;;;;;5074943;28;20252;-80
2021/11/26 04:10:07;;;;;;;9.57;6.10;;;6.10;99.90;;;;;;5076001;28;20619;-78
2021/11/26 04:12:32;;;;;;;11.00;6.30;;;6.10;99.90;;;;;;5070513;28;20173;-78
2021/11/26 04:15:06;;;;;;;14.90;6.77;;;6.10;99.90;;;;;;5071922;28;20279;-79
2021/11/26 04:17:48;;;;;;;14.83;6.70;;;6.20;99.90;;;;;;5052920;28;20173;-78
2021/11/26 04:20:15;;;;;;;12.37;6.53;;;6.20;99.90;;;;;;5069700;28;20195;-79
2021/11/26 04:22:53;;;;;;;15.30;6.37;;;6.10;99.90;;;;;;5066563;28;20175;-86
2021/11/26 04:25:27;;;;;;;26.27;8.70;;;6.10;99.90;;;;;;5067897;28;20157;-80
2021/11/26 04:27:59;;;;;;;17.70;8.30;;;6.10;99.90;;;;;;5070639;28;20173;-78
2021/11/26 04:30:27;;;;;;;15.53;7.03;;;6.00;99.90;;;;;;5070631;28;20199;-78
2021/11/26 04:32:52;;;;;;;19.57;6.80;;;5.90;99.90;;;;;;5052212;28;20181;-78
2021/11/26 04:35:25;;;;;;;20.87;6.93;;;5.90;99.90;;;;;;5061517;28;20728;-78
2021/11/26 04:37:51;;;;;;;12.37;7.33;;;5.90;99.90;;;;;;5057754;28;20178;-78
2021/11/26 04:40:17;;;;;;;15.37;7.50;;;6.00;99.90;;;;;;5058013;28;20201;-78
2021/11/26 04:43:06;;;;;;;17.07;8.03;;;6.10;99.90;;;;;;5053491;28;20169;-79
2021/11/26 04:45:53;;;;;;;13.40;7.43;;;5.90;99.90;;;;;;5066434;28;20199;-77
2021/11/26 04:51:41;;;;;;;13.10;6.97;;;5.90;99.90;;;;;;5063089;28;20629;-81
2021/11/26 04:54:29;;;;;;;19.50;7.87;;;5.90;99.90;;;;;;5069955;28;20259;-79
2021/11/26 04:56:56;;;;;;;17.73;7.07;;;5.80;99.90;;;;;;5072687;28;20236;-79
2021/11/26 04:59:23;;;;;;;13.50;6.70;;;5.80;99.90;;;;;;5068122;28;20189;-79
2021/11/26 05:01:49;;;;;;;17.00;7.17;;;5.80;99.90;;;;;;5072668;28;20181;-80
2021/11/26 05:04:21;;;;;;;17.03;7.80;;;5.80;99.90;;;;;;5070142;28;20682;-79
2021/11/26 05:06:47;;;;;;;15.67;6.80;;;5.70;99.90;;;;;;5044100;28;20310;-82
2021/11/26 05:09:55;;;;;;;18.77;7.17;;;5.70;99.90;;;;;;5061370;28;20185;-82
2021/11/26 05:12:40;;;;;;;19.50;7.37;;;5.80;99.90;;;;;;5061954;28;20161;-87
2021/11/26 05:15:08;;;;;;;16.37;6.87;;;5.70;99.90;;;;;;5059201;28;20196;-80
2021/11/26 05:17:36;;;;;;;19.60;7.03;;;5.60;99.90;;;;;;5072046;28;20165;-86
2021/11/26 05:20:04;;;;;;;20.40;7.87;;;5.60;99.90;;;;;;5072895;28;20177;-93
2021/11/26 05:22:33;;;;;;;22.50;6.60;;;5.60;99.90;;;;;;5066393;28;20232;-92
2021/11/26 05:24:58;;;;;;;15.90;6.20;;;5.70;99.90;;;;;;5045858;28;20199;-93
2021/11/26 05:27:52;;;;;;;15.57;7.13;;;5.80;99.90;;;;;;5052459;28;20536;-95
2021/11/26 05:30:21;;;;;;;15.70;6.77;;;5.60;99.90;;;;;;5065902;28;20176;-95
2021/11/26 05:32:50;;;;;;;15.37;6.70;;;5.60;99.90;;;;;;5070655;28;20195;-95
2021/11/26 05:35:26;;;;;;;17.87;6.47;;;5.60;99.90;;;;;;5074152;28;20196;-85
2021/11/26 05:37:55;;;;;;;23.20;7.93;;;5.50;99.90;;;;;;5065099;28;20188;-91
2021/11/26 05:40:34;;;;;;;16.07;6.07;;;5.50;99.90;;;;;;5062504;28;20168;-93
2021/11/26 05:43:12;;;;;;;18.03;6.23;;;5.50;99.90;;;;;;5060339;28;20222;-93
2021/11/26 05:46:00;;;;;;;14.83;5.27;;;5.50;99.90;;;;;;5052172;28;20184;-95
2021/11/26 05:48:26;;;;;;;17.70;5.70;;;5.50;99.90;;;;;;5061098;28;20173;-92
2021/11/26 05:50:55;;;;;;;18.97;6.23;;;5.40;99.90;;;;;;5047128;28;20170;-96
2021/11/26 05:53:24;;;;;;;18.33;5.73;;;5.40;99.90;;;;;;5050508;28;20180;-93
2021/11/26 05:55:59;;;;;;;20.10;6.37;;;5.40;99.90;;;;;;5059068;28;20226;-94
2021/11/26 05:58:45;;;;;;;14.57;5.47;;;5.40;99.90;;;;;;5062106;28;20199;-88
2021/11/26 06:01:12;;;;;;;14.73;5.67;;;5.50;99.90;;;;;;5069737;28;20238;-80
2021/11/26 06:03:39;;;;;;;18.03;5.80;;;5.40;99.90;;;;;;5056069;28;20818;-84
2021/11/26 06:06:05;;;;;;;14.20;6.10;;;5.50;99.90;;;;;;5063005;28;20200;-82
2021/11/26 06:08:30;;;;;;;15.57;5.57;;;5.30;99.90;;;;;;5068846;28;20185;-90
2021/11/26 06:10:56;;;;;;;16.03;6.03;;;5.20;99.90;;;;;;5064911;28;20179;-84
2021/11/26 06:13:22;;;;;;;19.70;6.70;;;5.30;99.90;;;;;;5056798;28;20237;-83
2021/11/26 06:15:48;;;;;;;16.80;6.03;;;5.40;99.90;;;;;;5048659;28;20209;-80
2021/11/26 06:18:14;;;;;;;14.43;5.03;;;5.20;99.90;;;;;;5059206;28;20177;-82
2021/11/26 06:20:40;;;;;;;15.30;5.77;;;5.30;99.90;;;;;;5051212;28;20205;-86
2021/11/26 06:23:06;;;;;;;11.63;5.20;;;5.30;99.90;;;;;;5067690;28;20180;-82
2021/11/26 06:25:32;;;;;;;15.07;5.33;;;5.20;99.90;;;;;;5067911;28;20145;-78
2021/11/26 06:27:58;;;;;;;16.00;6.10;;;5.10;99.90;;;;;;5054313;28;20187;-80
2021/11/26 06:33:45;;;;;;;17.73;5.97;;;5.10;99.90;;;;;;5058253;28;20552;-82
2021/11/26 06:36:31;;;;;;;14.00;5.63;;;5.10;99.90;;;;;;5062455;28;20185;-89
2021/11/26 06:38:57;;;;;;;15.40;5.73;;;5.10;99.90;;;;;;5058862;28;20187;-91
2021/11/26 06:41:28;;;;;;;19.67;5.77;;;5.00;99.90;;;;;;5054495;28;20173;-78
2021/11/26 06:43:57;;;;;;;17.43;6.57;;;5.00;99.90;;;;;;5074376;28;20197;-86
2021/11/26 06:46:22;;;;;;;18.57;6.20;;;5.10;99.90;;;;;;5070544;28;20240;-81
2021/11/26 06:48:48;;;;;;;16.90;5.40;;;5.00;99.90;;;;;;5068200;28;20227;-79
2021/11/26 06:51:15;;;;;;;16.23;6.83;;;5.20;99.90;;;;;;5070118;28;20185;-79
2021/11/26 06:53:40;;;;;;;18.80;5.57;;;5.10;99.90;;;;;;5068743;28;20168;-80
2021/11/26 06:56:06;;;;;;;15.33;5.70;;;5.00;99.90;;;;;;5065298;28;20259;-78
2021/11/26 06:58:32;;;;;;;17.97;6.50;;;5.00;99.90;;;;;;5060134;28;20211;-82
2021/11/26 07:00:57;;;;;;;19.13;5.87;;;5.00;99.90;;;;;;5062957;28;20205;-78
2021/11/26 07:03:23;;;;;;;18.83;6.17;;;4.90;99.90;;;;;;5059068;28;20177;-85
2021/11/26 07:05:50;;;;;;;15.67;5.97;;;4.90;99.90;;;;;;5057727;28;20185;-90
2021/11/26 07:08:18;;;;;;;15.67;6.50;;;5.00;99.90;;;;;;5049493;28;20177;-91
2021/11/26 07:10:44;;;;;;;20.80;7.20;;;4.90;99.90;;;;;;5042729;28;20177;-81
2021/11/26 07:13:10;;;;;;;17.00;6.40;;;5.10;99.90;;;;;;5062121;28;20214;-88
2021/11/26 07:15:36;;;;;;;16.07;6.20;;;5.00;99.90;;;;;;5061059;28;20692;-85
2021/11/26 07:18:15;;;;;;;18.53;5.97;;;5.00;99.90;;;;;;5070985;28;20169;-91
2021/11/26 07:20:41;;;;;;;20.50;7.17;;;5.00;99.90;;;;;;5075740;28;20236;-81
2021/11/26 07:23:08;;;;;;;19.83;6.40;;;4.90;99.90;;;;;;5075223;28;20169;-83
2021/11/26 07:25:35;;;;;;;16.60;6.40;;;4.90;99.90;;;;;;5066085;28;20211;-89
2021/11/26 07:28:02;;;;;;;25.43;7.57;;;4.90;99.60;;;;;;5063837;28;20243;-83
2021/11/26 07:30:31;;;;;;;23.70;7.37;;;4.90;99.50;;;;;;5074278;28;20188;-78
2021/11/26 07:32:58;;;;;;;18.80;6.07;;;4.90;99.60;;;;;;5061134;28;20260;-82
2021/11/26 07:35:25;;;;;;;28.60;7.43;;;5.00;99.50;;;;;;5070254;28;20209;-84
2021/11/26 07:37:52;;;;;;;20.47;6.60;;;4.90;99.40;;;;;;5064003;28;20170;-79
2021/11/26 07:40:20;;;;;;;22.70;7.10;;;4.80;99.40;;;;;;5076549;28;20181;-80
2021/11/26 07:42:48;;;;;;;18.97;5.97;;;4.80;99.30;;;;;;5060461;28;20146;-84
2021/11/26 07:45:14;;;;;;;21.73;5.63;;;4.80;99.20;;;;;;5049589;28;20204;-83
2021/11/26 07:47:55;;;;;;;15.13;5.50;;;4.80;99.00;;;;;;5054266;28;20225;-84
2021/11/26 07:50:24;;;;;;;15.83;6.17;;;4.80;98.60;;;;;;5080241;28;20179;-81
2021/11/26 07:53:14;;;;;;;16.13;6.33;;;4.80;98.50;;;;;;5092333;28;20161;-88
2021/11/26 07:56:02;;;;;;;16.03;4.80;;;4.80;98.40;;;;;;5085676;28;20210;-86
2021/11/26 07:58:33;;;;;;;15.03;4.83;;;4.80;97.90;;;;;;5084908;28;20168;-90
2021/11/26 08:00:59;;;;;;;17.90;5.07;;;4.90;97.60;;;;;;5072801;28;20188;-85
2021/11/26 08:03:29;;;;;;;12.90;4.90;;;4.90;97.20;;;;;;5099356;28;20170;-87
2021/11/26 08:05:56;;;;;;;15.33;5.90;;;4.90;96.80;;;;;;5098557;28;20225;-87
2021/11/26 08:08:22;;;;;;;10.97;4.80;;;4.90;96.60;;;;;;5093664;28;20172;-85
2021/11/26 08:10:52;;;;;;;16.43;5.10;;;5.00;95.30;;;;;;5073364;28;20172;-83
2021/11/26 08:13:20;;;;;;;12.70;4.80;;;5.00;95.20;;;;;;5075099;28;20173;-87
2021/11/26 08:15:57;;;;;;;14.87;4.90;;;4.80;94.70;;;;;;5059783;28;20197;-90
2021/11/26 08:18:22;;;;;;;14.30;5.20;;;5.00;94.80;;;;;;5066440;28;20165;-87
2021/11/26 08:20:48;;;;;;;11.93;6.07;;;5.00;94.10;;;;;;5070194;28;20181;-86
2021/11/26 08:23:14;;;;;;;16.07;5.40;;;5.10;93.20;;;;;;5058839;28;20177;-85
2021/11/26 08:25:41;;;;;;;17.43;4.90;;;5.20;92.10;;;;;;5058025;28;20252;-88
2021/11/26 08:28:07;;;;;;;13.47;4.47;;;5.20;91.50;;;;;;5068372;28;20677;-89
2021/11/26 08:30:34;;;;;;;17.23;5.27;;;5.20;90.80;;;;;;5059756;28;20185;-88
2021/11/26 08:33:01;;;;;;;16.43;5.27;;;5.10;90.50;;;;;;5047666;28;20222;-87
2021/11/26 08:35:26;;;;;;;15.07;5.60;;;5.30;90.50;;;;;;5063560;28;20718;-87
2021/11/26 08:37:53;;;;;;;10.90;4.73;;;5.20;89.00;;;;;;5068589;28;20172;-86
2021/11/26 08:40:19;;;;;;;11.70;4.43;;;5.40;87.20;;;;;;5067190;28;20169;-90
2021/11/26 08:42:46;;;;;;;18.40;5.87;;;5.40;83.50;;;;;;5059149;28;20173;-89
2021/11/26 08:45:13;;;;;;;13.97;6.40;;;5.50;82.60;;;;;;5037853;28;20168;-83
2021/11/26 08:47:42;;;;;;;14.60;5.13;;;5.50;82.10;;;;;;5045270;28;20170;-83
2021/11/26 08:50:11;;;;;;;11.83;4.97;;;5.50;80.70;;;;;;5054276;28;20188;-88
2021/11/26 08:52:43;;;;;;;14.00;5.67;;;5.50;79.80;;;;;;5054747;28;20200;-86
2021/11/26 08:55:22;;;;;;;13.57;4.63;;;5.60;77.80;;;;;;5071178;28;20733;-82
2021/11/26 08:58:37;;;;;;;13.67;5.80;;;5.50;78.00;;;;;;5056699;28;20189;-80
2021/11/26 09:01:05;;;;;;;15.60;4.90;;;5.50;74.50;;;;;;5058013;28;20205;-80
2021/11/26 09:03:33;;;;;;;10.87;4.63;;;5.60;71.50;;;;;;5058438;28;20173;-83
2021/11/26 09:05:59;;;;;;;11.57;4.20;;;5.70;71.80;;;;;;5057858;28;20230;-88
2021/11/26 09:08:35;;;;;;;13.00;3.93;;;5.70;70.10;;;;;;5054859;28;20154;-89
2021/11/26 09:11:03;;;;;;;12.20;4.43;;;5.70;65.90;;;;;;5056602;28;20200;-85
2021/11/26 09:13:31;;;;;;;15.27;4.80;;;5.70;65.20;;;;;;5055507;28;20170;-85
2021/11/26 09:16:00;;;;;;;12.20;4.17;;;5.70;66.20;;;;;;5048272;28;20208;-83
2021/11/26 09:18:27;;;;;;;9.73;3.83;;;5.70;63.50;;;;;;5039408;28;20235;-90
2021/11/26 09:20:54;;;;;;;12.60;4.70;;;5.70;63.90;;;;;;5038307;28;20200;-91
2021/11/26 09:23:23;;;;;;;12.90;4.57;;;5.60;64.40;;;;;;5039903;28;20525;-90
2021/11/26 09:25:50;;;;;;;14.63;5.30;;;5.60;67.50;;;;;;5039020;28;20170;-87
2021/11/26 09:28:17;;;;;;;13.87;5.67;;;5.60;67.70;;;;;;5038578;28;20166;-89
2021/11/26 09:30:44;;;;;;;13.27;4.80;;;5.60;68.50;;;;;;5038650;28;20258;-84
2021/11/26 09:33:12;;;;;;;13.60;5.00;;;5.70;70.00;;;;;;5045705;28;20267;-89
2021/11/26 09:35:39;;;;;;;14.70;5.20;;;5.80;69.00;;;;;;5050463;28;20296;-89
2021/11/26 09:38:04;;;;;;;14.73;4.90;;;5.80;65.30;;;;;;5040235;28;20196;-90
2021/11/26 09:40:33;;;;;;;11.87;4.83;;;5.90;63.60;;;;;;5048590;28;20184;-85
2021/11/26 09:43:02;;;;;;;15.47;4.60;;;5.90;61.70;;;;;;5081532;28;20648;-89
2021/11/26 09:45:38;;;;;;;17.50;6.03;;;5.90;61.10;;;;;;5084378;28;20248;-92
2021/11/26 09:48:06;;;;;;;14.97;5.27;;;6.10;57.90;;;;;;5081823;28;20644;-86
2021/11/26 09:50:35;;;;;;;11.63;5.30;;;5.90;58.20;;;;;;5067519;28;20265;-92
2021/11/26 09:53:20;;;;;;;13.63;5.40;;;6.00;60.00;;;;;;5084688;28;20169;-90
2021/11/26 09:56:02;;;;;;;17.17;5.97;;;6.10;56.00;;;;;;5082920;28;20299;-88
2021/11/26 09:58:29;;;;;;;16.10;5.57;;;6.00;56.20;;;;;;5080703;28;20199;-87
2021/11/26 10:00:57;;;;;;;14.40;5.27;;;6.00;60.60;;;;;;5078211;28;20222;-86
2021/11/26 10:03:40;;;;;;;14.87;6.07;;;6.00;62.70;;;;;;5082400;28;20168;-87
2021/11/26 10:06:34;;;;;;;16.10;5.87;;;5.90;65.10;;;;;;5091160;28;20202;-86
2021/11/26 10:09:24;;;;;;;21.03;5.90;;;5.90;68.40;;;;;;5086435;28;20219;-90
2021/11/26 10:11:56;;;;;;;15.27;5.17;;;5.80;76.70;;;;;;5081941;28;20165;-84
2021/11/26 10:14:34;;;;;;;14.40;5.73;;;5.70;81.00;;;;;;5093980;28;20211;-86
2021/11/26 10:17:19;;;;;;;21.77;6.03;;;5.70;82.90;;;;;;5094059;28;20190;-81
2021/11/26 10:19:46;;;;;;;16.43;5.47;;;5.70;84.40;;;;;;5089060;28;20165;-87
2021/11/26 10:22:31;;;;;;;14.73;5.60;;;5.70;88.10;;;;;;5080265;28;20160;-91
2021/11/26 10:25:19;;;;;;;12.50;5.20;;;5.70;90.60;;;;;;5078187;28;20160;-91
2021/11/26 10:27:55;;;;;;;14.30;5.43;;;5.60;91.40;;;;;;5079803;28;20156;-83
2021/11/26 10:30:28;;;;;;;8.77;4.50;;;5.60;91.90;;;;;;5082796;28;20181;-91
2021/11/26 10:32:58;;;;;;;8.67;4.07;;;5.50;92.60;;;;;;5093041;28;20177;-88
2021/11/26 10:35:31;;;;;;;13.27;5.67;;;5.60;93.30;;;;;;5093818;28;20227;-84
2021/11/26 10:38:07;;;;;;;12.60;5.50;;;5.60;94.20;;;;;;5092678;28;20176;-83
2021/11/26 10:40:39;;;;;;;13.33;6.70;;;5.50;94.60;;;;;;5090770;28;20184;-80
2021/11/26 10:43:14;;;;;;;14.40;6.73;;;5.50;94.50;;;;;;5077896;28;20240;-83
2021/11/26 10:46:41;;;;;;;17.03;6.73;;;5.50;95.50;;;;;;5074800;28;20242;-89
2021/11/26 10:49:07;;;;;;;13.53;6.67;;;5.50;96.50;;;;;;5075864;28;20256;-87
2021/11/26 10:57:57;;;;;;;14.87;6.63;;;5.50;98.40;;;;;;5069357;28;20915;-88
2021/11/26 11:00:26;;;;;;;12.60;6.60;;;5.50;98.30;;;;;;5070675;28;20201;-82
2021/11/26 11:02:56;;;;;;;15.70;7.27;;;5.50;98.70;;;;;;5069075;28;20183;-80
2021/11/26 11:05:39;;;;;;;18.00;6.67;;;5.50;99.40;;;;;;5069526;28;20161;-92
2021/11/26 11:08:23;;;;;;;14.77;6.67;;;5.50;99.90;;;;;;5064300;28;20558;-83
2021/11/26 11:10:51;;;;;;;12.13;6.37;;;5.50;99.90;;;;;;5074724;28;20153;-81
2021/11/26 11:13:36;;;;;;;11.90;6.07;;;5.50;99.90;;;;;;5073183;28;20153;-79
2021/11/26 11:16:12;;;;;;;13.17;6.60;;;5.60;99.90;;;;;;5068712;28;20204;-83
2021/11/26 11:18:38;;;;;;;16.17;6.90;;;5.60;99.90;;;;;;5065854;28;20169;-87
2021/11/26 11:21:07;;;;;;;11.23;6.30;;;5.60;99.90;;;;;;5064212;28;20221;-90
2021/11/26 11:23:33;;;;;;;11.53;5.80;;;5.60;99.90;;;;;;5062050;28;20263;-86
2021/11/26 11:25:59;;;;;;;14.20;6.10;;;5.50;99.90;;;;;;5064974;28;20180;-88
2021/11/26 11:28:27;;;;;;;15.50;6.53;;;5.40;99.90;;;;;;5078872;28;20158;-79
2021/11/26 11:30:54;;;;;;;13.33;6.50;;;5.60;99.90;;;;;;5079859;28;20160;-80
2021/11/26 11:33:26;;;;;;;13.00;5.87;;;5.50;99.90;;;;;;5080135;28;20224;-83
2021/11/26 11:36:06;;;;;;;13.67;6.37;;;5.50;99.90;;;;;;5079790;28;20208;-81
2021/11/26 11:38:35;;;;;;;9.73;5.70;;;5.50;99.90;;;;;;5078955;28;20660;-79
2021/11/26 11:44:27;;;;;;;11.63;5.17;;;5.40;99.90;;;;;;5074326;28;20552;-79
2021/11/26 11:50:20;;;;;;;8.43;4.77;;;5.40;99.90;;;;;;5070383;28;20156;-80
2021/11/26 11:53:05;;;;;;;9.90;3.83;;;5.30;99.90;;;;;;5063260;28;20176;-83
2021/11/26 11:55:37;;;;;;;9.47;4.93;;;5.30;99.90;;;;;;5061399;28;20264;-87
2021/11/26 11:58:22;;;;;;;9.30;4.73;;;5.20;99.90;;;;;;5064994;28;20211;-88
2021/11/26 12:00:56;;;;;;;9.13;4.70;;;5.30;99.90;;;;;;5060725;28;20193;-92
2021/11/26 12:03:43;;;;;;;12.17;5.53;;;5.20;99.90;;;;;;5059161;28;20168;-89
2021/11/26 12:06:43;;;;;;;7.23;4.73;;;5.30;99.90;;;;;;5061223;28;20176;-88
2021/11/26 12:09:30;;;;;;;10.27;4.30;;;5.30;99.90;;;;;;5059586;28;20342;-82
2021/11/26 12:12:06;;;;;;;7.70;4.47;;;5.30;99.90;;;;;;5064335;28;20172;-82
2021/11/26 12:14:53;;;;;;;10.17;4.77;;;5.20;99.90;;;;;;5067320;28;20528;-82
2021/11/26 12:17:35;;;;;;;10.13;5.20;;;5.30;99.90;;;;;;5066703;28;20161;-80
2021/11/26 12:20:10;;;;;;;8.80;4.43;;;5.30;99.90;;;;;;5065084;28;20169;-90
2021/11/26 12:23:26;;;;;;;11.80;5.03;;;5.30;99.90;;;;;;5064978;28;20161;-82
2021/11/26 12:26:02;;;;;;;8.87;5.30;;;5.30;99.90;;;;;;5065508;28;20181;-89
2021/11/26 12:28:39;;;;;;;7.83;4.40;;;5.40;99.90;;;;;;5062480;28;20165;-91
2021/11/26 12:31:09;;;;;;;6.73;3.93;;;5.40;99.90;;;;;;5051769;28;20212;-86
2021/11/26 12:33:55;;;;;;;9.10;4.43;;;5.30;99.90;;;;;;5073016;28;20165;-89
2021/11/26 12:36:57;;;;;;;9.00;4.50;;;5.40;99.90;;;;;;5060653;28;20197;-82
2021/11/26 12:39:32;;;;;;;8.67;4.70;;;5.30;99.90;;;;;;5056483;28;20180;-80
2021/11/26 12:42:00;;;;;;;9.87;4.93;;;5.40;99.90;;;;;;5087067;28;20156;-84
2021/11/26 12:44:33;;;;;;;14.33;5.50;;;5.40;99.90;;;;;;5096256;28;20236;-81
2021/11/26 12:47:05;;;;;;;12.40;5.47;;;5.40;99.90;;;;;;5096706;28;20160;-81
2021/11/26 12:52:18;;;;;;;9.17;4.97;;;5.40;99.90;;;;;;5076465;28;20188;-84
2021/11/26 12:54:55;;;;;;;7.60;4.57;;;5.50;99.90;;;;;;5074936;28;20212;-79
2021/11/26 12:57:56;;;;;;;7.43;4.23;;;5.40;99.90;;;;;;5075018;28;20237;-81
2021/11/26 13:01:05;;;;;;;12.63;4.17;;;5.40;99.90;;;;;;5076171;28;20208;-83
2021/11/26 13:07:10;;;;;;;11.70;5.13;;;5.50;99.90;;;;;;5073619;28;20168;-85
2021/11/26 13:10:14;;;;;;;13.10;5.27;;;5.50;99.90;;;;;;5073969;28;20236;-83
2021/11/26 13:12:54;;;;;;;7.87;4.83;;;5.50;99.90;;;;;;5075208;28;20165;-78
2021/11/26 13:15:46;;;;;;;7.43;4.73;;;5.50;99.90;;;;;;5072418;28;20257;-79
2021/11/26 13:18:21;;;;;;;8.43;5.30;;;5.50;99.90;;;;;;5069500;28;20256;-87
2021/11/26 13:21:36;;;;;;;7.53;4.47;;;5.50;99.90;;;;;;5058771;28;20192;-83
2021/11/26 13:24:37;;;;;;;9.40;4.53;;;5.50;99.90;;;;;;5057440;28;20164;-79
2021/11/26 13:27:04;;;;;;;7.50;4.60;;;5.50;99.90;;;;;;5057464;28;20168;-82
2021/11/26 13:29:31;;;;;;;7.53;4.10;;;5.60;99.90;;;;;;5061847;28;20184;-80
2021/11/26 13:31:58;;;;;;;8.70;4.67;;;5.60;99.90;;;;;;5062723;28;20205;-79
2021/11/26 13:34:27;;;;;;;10.07;4.70;;;5.70;99.90;;;;;;5063716;28;20189;-80
2021/11/26 13:36:56;;;;;;;8.33;5.27;;;5.70;99.90;;;;;;5062704;28;20173;-81
2021/11/26 13:39:26;;;;;;;8.17;4.10;;;5.70;99.90;;;;;;5063246;28;20220;-80
2021/11/26 13:41:52;;;;;;;8.03;5.00;;;5.80;99.90;;;;;;5078062;28;20237;-79
2021/11/26 13:44:22;;;;;;;8.70;5.07;;;5.80;99.90;;;;;;5083648;28;20169;-80
2021/11/26 13:46:59;;;;;;;8.83;5.03;;;5.90;99.90;;;;;;5042206;28;20205;-83
2021/11/26 13:49:27;;;;;;;7.57;4.90;;;5.80;99.90;;;;;;5049764;28;20226;-81
2021/11/26 13:51:59;;;;;;;10.00;5.53;;;5.80;99.90;;;;;;5057168;28;20166;-86
2021/11/26 13:57:48;;;;;;;7.77;4.57;;;5.70;99.90;;;;;;5065410;28;20172;-86